Time;durP1;ratioP1;P1;durP2;ratioP2;P2;SDS_P1;SDS_P2;PMS_P1;PMS_P2;Temp;Humidity;BMP_temperature;BMP_pressure;BME280_temperature;BME280_humidity;BME280_pressure;Samples;Min_cycle;Max_cycle;Signal;HPM_P1;HPM_P2
2021/10/12 00:01:17;;;;;;;11.10;3.97;;;13.70;73.30;;;;;;5033363;28;20186;-90
2021/10/12 00:03:43;;;;;;;6.40;3.30;;;13.70;73.30;;;;;;5017040;28;20693;-90
2021/10/12 00:06:09;;;;;;;4.87;2.93;;;13.70;73.20;;;;;;5033568;28;20192;-90
2021/10/12 00:08:35;;;;;;;9.52;4.18;;;13.60;73.10;;;;;;5034153;28;20208;-89
2021/10/12 00:11:01;;;;;;;10.95;3.28;;;13.60;73.10;;;;;;5033503;28;20603;-90
2021/10/12 00:13:27;;;;;;;6.40;3.70;;;13.70;72.90;;;;;;5032932;28;20194;-90
2021/10/12 00:15:53;;;;;;;12.48;5.30;;;13.60;72.70;;;;;;5039934;28;20204;-90
2021/10/12 00:18:19;;;;;;;10.63;3.45;;;13.60;72.70;;;;;;5053210;28;20184;-90
2021/10/12 00:20:45;;;;;;;7.28;3.15;;;13.60;72.60;;;;;;5048956;28;20236;-91
2021/10/12 00:23:10;;;;;;;13.30;4.20;;;13.60;72.70;;;;;;5033622;28;20627;-91
2021/10/12 00:25:36;;;;;;;13.00;3.53;;;13.60;72.70;;;;;;5034673;28;20178;-91
2021/10/12 00:28:02;;;;;;;12.20;4.50;;;13.60;72.70;;;;;;5033796;28;20412;-91
2021/10/12 00:30:28;;;;;;;8.88;3.72;;;13.60;72.60;;;;;;5034312;28;20204;-90
2021/10/12 00:32:54;;;;;;;13.33;3.40;;;13.60;72.50;;;;;;5034143;28;20314;-91
2021/10/12 00:35:19;;;;;;;17.13;4.27;;;13.60;72.50;;;;;;5034621;28;20622;-90
2021/10/12 00:37:45;;;;;;;7.30;3.80;;;13.50;72.50;;;;;;5034467;28;20261;-90
2021/10/12 00:40:11;;;;;;;13.17;4.37;;;13.50;72.60;;;;;;5034337;28;20178;-90
2021/10/12 00:42:37;;;;;;;9.13;3.23;;;13.50;72.50;;;;;;5034094;28;20178;-90
2021/10/12 00:45:06;;;;;;;13.57;3.85;;;13.40;72.50;;;;;;5033577;28;21027;-91
2021/10/12 00:47:32;;;;;;;13.43;3.85;;;13.50;72.70;;;;;;5034098;28;20232;-90
2021/10/12 00:49:58;;;;;;;8.23;3.80;;;13.50;72.80;;;;;;5041656;28;20170;-90
2021/10/12 00:52:24;;;;;;;11.30;4.00;;;13.50;72.80;;;;;;5041909;28;20424;-90
2021/10/12 00:55:04;;;;;;;13.73;3.53;;;13.40;72.70;;;;;;5034234;28;20442;-90
2021/10/12 00:57:30;;;;;;;15.80;4.43;;;13.50;72.70;;;;;;5030500;28;20571;-90
2021/10/12 00:59:55;;;;;;;15.10;4.17;;;13.40;72.70;;;;;;5014116;28;20210;-90
2021/10/12 01:02:21;;;;;;;11.50;4.10;;;13.40;72.80;;;;;;5013254;28;20205;-91
2021/10/12 01:04:47;;;;;;;15.03;4.10;;;13.30;73.00;;;;;;5013287;28;20201;-91
2021/10/12 01:07:13;;;;;;;6.60;4.10;;;13.30;73.10;;;;;;5014463;28;20645;-90
2021/10/12 01:09:39;;;;;;;12.93;3.93;;;13.40;73.10;;;;;;5013526;28;20174;-90
2021/10/12 01:12:05;;;;;;;11.82;4.55;;;13.40;72.80;;;;;;5024002;28;20174;-90
2021/10/12 01:14:31;;;;;;;10.13;3.10;;;13.30;72.90;;;;;;5032592;28;20289;-90
2021/10/12 01:16:57;;;;;;;13.20;5.23;;;13.30;73.20;;;;;;5025450;28;20179;-90
2021/10/12 01:19:23;;;;;;;16.17;4.00;;;13.30;73.20;;;;;;4996302;28;20417;-90
2021/10/12 01:21:49;;;;;;;16.10;4.77;;;13.40;73.00;;;;;;5014218;28;20304;-90
2021/10/12 01:24:16;;;;;;;6.22;4.30;;;13.30;72.70;;;;;;5012391;28;20510;-90
2021/10/12 01:26:44;;;;;;;7.75;3.95;;;13.30;72.70;;;;;;5012894;28;20240;-90
2021/10/12 01:29:11;;;;;;;12.68;4.25;;;13.20;72.80;;;;;;5016638;28;20186;-89
2021/10/12 01:31:37;;;;;;;16.40;5.30;;;13.20;73.10;;;;;;5016321;28;20530;-89
2021/10/12 01:34:14;;;;;;;13.70;4.20;;;13.40;73.00;;;;;;5015480;28;20209;-89
2021/10/12 01:36:40;;;;;;;7.00;4.00;;;13.40;72.60;;;;;;5017304;28;20412;-90
2021/10/12 01:39:06;;;;;;;11.02;3.60;;;13.30;72.90;;;;;;5015953;28;20526;-91
2021/10/12 01:41:31;;;;;;;12.73;3.80;;;13.30;73.00;;;;;;5036090;28;20197;-91
2021/10/12 01:43:57;;;;;;;14.60;5.70;;;13.20;73.10;;;;;;5037915;28;20208;-90
2021/10/12 01:46:23;;;;;;;17.00;6.33;;;13.20;73.20;;;;;;5036326;28;20268;-90
2021/10/12 01:48:49;;;;;;;11.10;5.17;;;13.10;73.70;;;;;;5036125;28;20170;-90
2021/10/12 01:51:14;;;;;;;15.87;5.00;;;13.10;73.90;;;;;;5036270;28;20177;-90
2021/10/12 01:53:40;;;;;;;15.97;5.23;;;13.00;74.00;;;;;;5036231;28;20224;-90
2021/10/12 01:56:06;;;;;;;20.67;5.95;;;12.90;74.10;;;;;;5036475;28;20563;-91
2021/10/12 01:58:32;;;;;;;14.60;4.93;;;12.90;74.40;;;;;;5036210;28;20194;-90
2021/10/12 02:00:58;;;;;;;14.40;5.13;;;12.90;74.50;;;;;;5035759;28;20569;-90
2021/10/12 02:03:24;;;;;;;13.00;5.78;;;13.00;74.50;;;;;;5034822;28;20328;-91
2021/10/12 02:05:50;;;;;;;9.33;4.87;;;12.90;74.50;;;;;;5035409;28;20661;-90
2021/10/12 02:08:16;;;;;;;7.80;4.80;;;12.90;74.60;;;;;;5036904;28;20633;-91
2021/10/12 02:10:42;;;;;;;12.57;5.53;;;12.90;74.60;;;;;;5035341;28;20192;-90
2021/10/12 02:13:08;;;;;;;19.30;5.83;;;13.00;74.50;;;;;;5048587;28;20450;-91
2021/10/12 02:15:34;;;;;;;11.85;5.80;;;13.00;74.40;;;;;;5055458;28;20173;-90
2021/10/12 02:18:00;;;;;;;10.87;5.43;;;12.90;74.50;;;;;;5054394;28;20181;-90
2021/10/12 02:20:25;;;;;;;12.30;5.97;;;13.00;74.50;;;;;;5055017;28;20990;-91
2021/10/12 02:22:51;;;;;;;14.30;5.00;;;13.00;74.40;;;;;;5054662;28;20462;-91
2021/10/12 02:25:37;;;;;;;14.00;5.27;;;13.00;74.40;;;;;;5036279;28;20186;-90
2021/10/12 02:28:03;;;;;;;14.07;5.38;;;13.00;74.30;;;;;;5015032;28;20171;-90
2021/10/12 02:30:28;;;;;;;9.67;4.50;;;13.10;74.40;;;;;;5014951;28;20180;-90
2021/10/12 02:32:54;;;;;;;9.13;5.17;;;13.10;74.10;;;;;;5015017;28;20224;-90
2021/10/12 02:35:20;;;;;;;14.63;5.23;;;13.20;74.00;;;;;;5015279;28;20178;-90
2021/10/12 02:37:46;;;;;;;10.33;4.90;;;13.20;74.00;;;;;;5015332;28;20245;-90
2021/10/12 02:40:12;;;;;;;12.10;4.90;;;13.20;73.80;;;;;;5015185;28;20252;-90
2021/10/12 02:42:37;;;;;;;10.37;5.53;;;13.20;73.80;;;;;;5030157;28;20459;-90
2021/10/12 02:45:04;;;;;;;14.53;5.50;;;13.20;73.90;;;;;;5035897;28;20963;-90
2021/10/12 02:47:32;;;;;;;9.25;4.57;;;13.30;74.60;;;;;;5034863;28;20408;-90
2021/10/12 02:49:58;;;;;;;7.65;4.88;;;13.30;73.80;;;;;;5035764;28;20248;-90
2021/10/12 02:52:24;;;;;;;13.90;5.10;;;13.30;73.70;;;;;;5034169;28;20174;-89
2021/10/12 02:54:59;;;;;;;15.23;6.30;;;13.30;73.60;;;;;;5034777;28;20607;-90
2021/10/12 02:57:25;;;;;;;15.50;5.70;;;13.20;73.70;;;;;;5034232;28;20162;-90
2021/10/12 02:59:51;;;;;;;15.60;5.50;;;13.20;73.90;;;;;;5035018;28;20243;-90
2021/10/12 03:02:17;;;;;;;21.80;6.20;;;13.20;74.00;;;;;;5034111;28;20189;-90
2021/10/12 03:04:43;;;;;;;15.77;5.20;;;13.30;74.00;;;;;;5034650;28;20457;-90
2021/10/12 03:07:08;;;;;;;13.27;5.97;;;13.20;73.90;;;;;;5034762;28;20443;-90
2021/10/12 03:09:34;;;;;;;11.20;5.73;;;13.20;73.90;;;;;;5036263;28;20442;-90
2021/10/12 03:12:00;;;;;;;14.83;5.90;;;13.20;73.80;;;;;;5034155;28;20170;-90
2021/10/12 03:14:26;;;;;;;11.00;5.70;;;13.30;73.70;;;;;;5034422;28;20209;-89
2021/10/12 03:16:52;;;;;;;10.90;5.27;;;13.30;73.70;;;;;;5034941;28;20193;-89
2021/10/12 03:19:17;;;;;;;12.67;5.30;;;13.40;73.50;;;;;;5034572;28;20428;-90
2021/10/12 03:21:52;;;;;;;14.63;5.23;;;13.40;73.10;;;;;;5035148;28;20431;-90
2021/10/12 03:24:18;;;;;;;18.63;7.05;;;13.50;73.10;;;;;;5035365;28;20288;-89
2021/10/12 03:26:44;;;;;;;18.20;6.97;;;13.50;72.90;;;;;;5034411;28;20239;-90
2021/10/12 03:29:10;;;;;;;14.43;5.03;;;13.40;73.70;;;;;;5034349;28;20535;-89
2021/10/12 03:31:36;;;;;;;12.63;4.50;;;13.30;73.20;;;;;;5033458;28;20178;-89
2021/10/12 03:34:02;;;;;;;13.03;4.10;;;13.40;73.30;;;;;;5035710;28;20444;-90
2021/10/12 03:36:28;;;;;;;12.82;5.63;;;13.40;73.30;;;;;;5034149;28;20420;-89
2021/10/12 03:38:53;;;;;;;14.13;5.67;;;13.40;73.30;;;;;;5033821;28;20239;-89
2021/10/12 03:41:19;;;;;;;9.87;4.77;;;13.50;73.10;;;;;;5034078;28;20417;-89
2021/10/12 03:43:45;;;;;;;13.80;4.77;;;13.40;73.10;;;;;;5034211;28;20205;-90
2021/10/12 03:46:12;;;;;;;9.07;4.33;;;13.40;73.90;;;;;;5036222;28;20538;-90
2021/10/12 03:48:38;;;;;;;11.30;4.30;;;13.40;73.20;;;;;;5034511;28;20174;-90
2021/10/12 03:51:04;;;;;;;16.53;5.00;;;13.50;73.10;;;;;;5034263;28;20185;-90
2021/10/12 03:53:30;;;;;;;11.38;5.13;;;13.40;73.10;;;;;;5033883;28;20255;-90
2021/10/12 03:55:58;;;;;;;9.87;4.37;;;13.60;73.10;;;;;;5034015;28;20185;-90
2021/10/12 03:58:23;;;;;;;11.48;4.20;;;13.60;72.90;;;;;;5036507;28;20579;-90
2021/10/12 04:00:49;;;;;;;12.17;4.70;;;13.50;72.80;;;;;;5034128;28;20189;-90
2021/10/12 04:03:15;;;;;;;14.17;5.13;;;13.40;72.70;;;;;;5033364;28;20738;-91
2021/10/12 04:05:41;;;;;;;9.70;4.80;;;13.40;72.90;;;;;;5035363;28;20174;-90
2021/10/12 04:08:06;;;;;;;13.87;5.30;;;13.40;72.90;;;;;;5034788;28;20507;-90
2021/10/12 04:10:32;;;;;;;8.70;4.50;;;13.50;73.00;;;;;;5034097;28;20174;-90
2021/10/12 04:12:58;;;;;;;16.37;5.63;;;13.50;72.80;;;;;;5033723;28;20677;-90
2021/10/12 04:15:24;;;;;;;16.93;5.53;;;13.50;72.70;;;;;;5033337;28;20420;-90
2021/10/12 04:17:49;;;;;;;10.77;5.20;;;13.50;72.70;;;;;;5033508;28;20177;-90
2021/10/12 04:20:15;;;;;;;12.90;6.73;;;13.40;72.70;;;;;;5033262;28;20482;-91
2021/10/12 04:22:41;;;;;;;12.70;6.10;;;13.50;73.00;;;;;;5032831;28;20669;-90
2021/10/12 04:25:07;;;;;;;10.57;5.20;;;13.60;72.70;;;;;;5033434;28;20205;-90
2021/10/12 04:27:34;;;;;;;15.25;6.82;;;13.50;72.60;;;;;;5032932;28;20261;-90
2021/10/12 04:29:59;;;;;;;15.23;6.15;;;13.50;72.80;;;;;;5033197;28;20661;-90
2021/10/12 04:32:25;;;;;;;11.33;6.90;;;13.60;72.80;;;;;;5035779;28;20181;-90
2021/10/12 04:34:51;;;;;;;9.83;6.07;;;13.60;72.80;;;;;;5022283;28;20187;-90
2021/10/12 04:37:18;;;;;;;11.97;5.57;;;13.60;72.80;;;;;;5016034;28;20178;-90
2021/10/12 04:39:44;;;;;;;14.75;6.05;;;13.60;72.60;;;;;;5014115;28;20183;-90
2021/10/12 04:42:10;;;;;;;21.17;6.47;;;13.60;72.80;;;;;;5012827;28;20187;-90
2021/10/12 04:44:35;;;;;;;14.10;7.95;;;13.60;73.00;;;;;;5012678;28;20202;-89
2021/10/12 04:47:02;;;;;;;12.00;5.57;;;13.50;73.10;;;;;;5012417;28;20182;-89
2021/10/12 04:49:28;;;;;;;11.43;6.50;;;13.40;73.30;;;;;;5028133;28;20211;-89
2021/10/12 04:51:53;;;;;;;15.67;6.63;;;13.40;73.40;;;;;;5033729;28;20629;-89
2021/10/12 04:54:19;;;;;;;11.30;5.90;;;13.40;73.60;;;;;;5032677;28;20742;-89
2021/10/12 04:56:45;;;;;;;13.73;6.40;;;13.30;73.80;;;;;;5032129;28;20236;-89
2021/10/12 04:59:10;;;;;;;11.67;6.93;;;13.30;74.00;;;;;;5031969;28;20268;-89
2021/10/12 05:01:36;;;;;;;22.80;7.00;;;13.30;74.30;;;;;;5032248;28;20181;-90
2021/10/12 05:04:02;;;;;;;18.50;7.30;;;13.40;74.40;;;;;;5035688;28;20221;-90
2021/10/12 05:06:27;;;;;;;13.80;6.97;;;13.40;74.20;;;;;;5020736;28;20701;-90
2021/10/12 05:08:54;;;;;;;13.13;7.10;;;13.40;74.10;;;;;;5039772;28;20265;-90
2021/10/12 05:11:20;;;;;;;17.20;7.07;;;13.40;74.20;;;;;;5035942;28;20227;-90
2021/10/12 05:13:48;;;;;;;9.77;6.27;;;13.30;74.20;;;;;;5053546;28;20572;-90
2021/10/12 05:16:13;;;;;;;19.83;7.72;;;13.30;74.30;;;;;;5037208;28;20428;-90
2021/10/12 05:18:42;;;;;;;12.83;8.60;;;13.40;74.40;;;;;;5035698;28;20247;-89
2021/10/12 05:21:08;;;;;;;13.52;7.20;;;13.40;74.30;;;;;;5037333;28;20530;-89
2021/10/12 05:23:34;;;;;;;19.38;7.00;;;13.40;74.30;;;;;;5036294;28;20256;-89
2021/10/12 05:26:00;;;;;;;13.60;7.50;;;13.40;74.40;;;;;;5037678;28;20186;-90
2021/10/12 05:28:26;;;;;;;16.00;7.38;;;13.40;74.40;;;;;;5036876;28;20173;-89
2021/10/12 05:30:52;;;;;;;12.83;8.17;;;13.20;74.50;;;;;;5037405;28;20185;-90
2021/10/12 05:33:19;;;;;;;15.10;7.50;;;13.20;74.60;;;;;;5035022;28;20460;-90
2021/10/12 05:35:47;;;;;;;13.57;7.00;;;13.30;74.70;;;;;;5036302;28;20217;-90
2021/10/12 05:38:14;;;;;;;13.25;7.25;;;13.30;74.70;;;;;;5035609;28;20553;-90
2021/10/12 05:40:42;;;;;;;10.98;7.10;;;13.20;74.90;;;;;;5036204;28;20212;-90
2021/10/12 05:43:07;;;;;;;15.15;8.38;;;13.20;75.10;;;;;;5036417;28;20228;-90
2021/10/12 05:45:34;;;;;;;14.33;6.63;;;13.20;75.10;;;;;;5035919;28;20640;-90
2021/10/12 05:48:00;;;;;;;8.93;7.13;;;13.20;75.20;;;;;;5037699;28;20189;-90
2021/10/12 05:50:26;;;;;;;15.00;8.30;;;13.20;75.30;;;;;;5037562;28;20186;-89
2021/10/12 05:58:35;;;;;;;14.98;9.05;;;13.10;75.80;;;;;;5037817;28;20161;-89
2021/10/12 06:01:03;;;;;;;13.95;7.45;;;13.00;75.80;;;;;;5035926;28;20557;-90
2021/10/12 06:03:29;;;;;;;14.50;8.65;;;13.10;76.00;;;;;;5036995;28;20226;-90
2021/10/12 06:05:55;;;;;;;14.80;8.93;;;13.00;76.00;;;;;;5036762;28;20217;-90
2021/10/12 06:08:22;;;;;;;18.17;8.80;;;12.90;76.20;;;;;;5036302;28;20614;-90
2021/10/12 06:10:48;;;;;;;19.38;9.50;;;13.00;76.20;;;;;;5036636;28;20182;-90
2021/10/12 06:13:14;;;;;;;19.77;7.77;;;13.00;76.30;;;;;;5036900;28;20202;-90
2021/10/12 06:15:41;;;;;;;15.68;8.95;;;13.10;76.40;;;;;;5042524;28;20415;-90
2021/10/12 06:18:08;;;;;;;14.32;7.75;;;13.10;76.30;;;;;;5058029;28;20178;-90
2021/10/12 06:20:34;;;;;;;12.60;7.78;;;13.10;76.30;;;;;;5038808;28;20266;-90
2021/10/12 06:23:00;;;;;;;16.40;8.50;;;13.10;76.40;;;;;;5038635;28;20233;-90
2021/10/12 06:25:26;;;;;;;18.60;8.03;;;13.10;76.50;;;;;;5039348;28;20228;-90
2021/10/12 06:27:51;;;;;;;9.73;7.27;;;13.00;76.40;;;;;;5040260;28;20482;-90
2021/10/12 06:30:17;;;;;;;18.63;8.27;;;13.10;76.60;;;;;;5039044;28;20212;-90
2021/10/12 06:32:43;;;;;;;23.17;9.27;;;13.20;76.50;;;;;;5029157;28;20449;-91
2021/10/12 06:35:09;;;;;;;14.80;8.45;;;13.20;76.40;;;;;;5038336;28;20186;-90
2021/10/12 06:37:35;;;;;;;17.13;8.83;;;13.30;76.30;;;;;;5037400;28;20277;-91
2021/10/12 06:40:02;;;;;;;16.80;8.67;;;13.40;76.10;;;;;;5037783;28;20807;-90
2021/10/12 06:42:28;;;;;;;17.20;8.85;;;13.40;75.90;;;;;;5024253;28;20916;-90
2021/10/12 06:44:53;;;;;;;15.60;8.85;;;13.40;75.80;;;;;;5037420;28;20248;-91
2021/10/12 06:47:19;;;;;;;18.90;9.67;;;13.50;75.70;;;;;;5024582;28;20186;-91
2021/10/12 06:49:45;;;;;;;17.10;10.03;;;13.60;75.50;;;;;;5036204;28;20174;-90
2021/10/12 06:52:11;;;;;;;15.77;8.75;;;13.60;75.50;;;;;;5036806;28;20228;-90
2021/10/12 06:54:37;;;;;;;16.40;8.95;;;13.70;75.60;;;;;;5037305;28;20205;-90
2021/10/12 06:57:10;;;;;;;14.07;8.03;;;13.70;75.40;;;;;;5036994;28;20200;-91
2021/10/12 06:59:35;;;;;;;16.67;9.13;;;13.70;75.40;;;;;;5037357;28;20166;-91
2021/10/12 07:02:01;;;;;;;20.23;9.90;;;13.80;75.30;;;;;;5036154;28;20194;-90
2021/10/12 07:04:27;;;;;;;22.97;10.13;;;13.80;75.20;;;;;;5036044;28;20210;-90
2021/10/12 07:06:53;;;;;;;22.10;9.30;;;13.90;75.20;;;;;;5037771;28;20444;-91
2021/10/12 07:09:18;;;;;;;17.97;8.60;;;13.90;75.10;;;;;;5036844;28;20187;-90
2021/10/12 07:11:45;;;;;;;18.00;9.33;;;14.00;75.10;;;;;;5028560;28;20658;-91
2021/10/12 07:14:11;;;;;;;26.52;8.43;;;14.00;75.00;;;;;;5057087;28;20443;-90
2021/10/12 07:16:38;;;;;;;19.73;9.30;;;14.00;75.10;;;;;;5028574;28;20273;-91
2021/10/12 07:19:05;;;;;;;15.30;8.52;;;14.10;75.00;;;;;;5029171;28;20236;-91
2021/10/12 07:21:32;;;;;;;20.70;10.32;;;14.30;74.90;;;;;;5036554;28;20649;-90
2021/10/12 07:23:57;;;;;;;14.55;9.18;;;14.40;75.30;;;;;;5037971;28;20210;-90
2021/10/12 07:26:23;;;;;;;14.27;7.77;;;14.50;74.40;;;;;;5038034;28;20652;-91
2021/10/12 07:28:49;;;;;;;11.33;7.53;;;14.50;74.20;;;;;;5031547;28;20198;-90
2021/10/12 07:31:15;;;;;;;18.83;8.35;;;14.50;74.20;;;;;;5035336;28;20305;-91
2021/10/12 07:33:41;;;;;;;11.73;7.60;;;14.50;74.10;;;;;;5023847;28;20222;-91
2021/10/12 07:36:07;;;;;;;13.57;7.57;;;14.50;74.10;;;;;;5036991;28;20881;-91
2021/10/12 07:38:33;;;;;;;14.40;7.43;;;14.50;74.00;;;;;;5020544;28;20225;-91
2021/10/12 07:40:59;;;;;;;18.92;7.53;;;14.60;74.10;;;;;;5036650;28;20183;-90
2021/10/12 07:43:25;;;;;;;11.10;6.55;;;14.60;74.00;;;;;;5035965;28;20695;-90
2021/10/12 07:45:51;;;;;;;25.58;8.52;;;14.50;74.00;;;;;;5036655;28;20713;-91
2021/10/12 07:48:18;;;;;;;20.97;6.53;;;14.50;74.00;;;;;;5036797;28;20212;-90
2021/10/12 07:50:44;;;;;;;22.58;7.93;;;14.50;74.10;;;;;;5036422;28;20508;-91
2021/10/12 07:53:11;;;;;;;20.50;7.70;;;14.60;74.20;;;;;;5037248;28;20206;-91
2021/10/12 07:55:42;;;;;;;10.95;6.45;;;14.70;74.30;;;;;;5036324;28;20260;-91
2021/10/12 07:58:07;;;;;;;19.15;6.85;;;14.60;74.10;;;;;;5037826;28;20650;-91
2021/10/12 08:00:33;;;;;;;15.93;7.43;;;14.70;74.30;;;;;;5037539;28;20250;-90
2021/10/12 08:03:01;;;;;;;12.52;7.55;;;14.80;74.20;;;;;;5035568;28;20296;-91
2021/10/12 08:05:28;;;;;;;19.63;6.38;;;14.70;74.00;;;;;;5020561;28;20241;-90
2021/10/12 08:07:54;;;;;;;21.20;7.15;;;14.60;74.00;;;;;;5037793;28;20573;-91
2021/10/12 08:10:21;;;;;;;13.77;6.55;;;14.60;74.10;;;;;;5038417;28;20182;-90
2021/10/12 08:12:53;;;;;;;9.57;5.53;;;14.70;74.00;;;;;;5037860;28;20186;-91
2021/10/12 08:15:20;;;;;;;11.27;6.03;;;14.60;73.90;;;;;;5037599;28;20185;-91
2021/10/12 08:17:47;;;;;;;13.68;6.00;;;14.50;74.00;;;;;;5038218;28;20181;-90
2021/10/12 08:20:12;;;;;;;26.77;6.57;;;14.40;74.30;;;;;;5018891;28;20182;-91
2021/10/12 08:22:38;;;;;;;18.20;6.90;;;14.40;74.70;;;;;;5018618;28;20237;-90
2021/10/12 08:25:07;;;;;;;12.70;6.37;;;14.40;74.80;;;;;;5022257;28;20309;-90
2021/10/12 08:27:33;;;;;;;18.35;6.88;;;14.50;74.90;;;;;;5036571;28;20201;-90
2021/10/12 08:29:58;;;;;;;12.50;6.70;;;14.40;74.80;;;;;;5036541;28;20178;-90
2021/10/12 08:32:24;;;;;;;13.73;5.43;;;14.50;74.80;;;;;;5030362;28;20557;-90
2021/10/12 08:34:50;;;;;;;13.63;5.80;;;14.60;74.80;;;;;;5036902;28;20221;-90
2021/10/12 08:37:15;;;;;;;20.73;6.53;;;14.40;74.60;;;;;;5039094;28;20232;-91
2021/10/12 08:39:43;;;;;;;23.73;6.53;;;14.50;74.90;;;;;;5038541;28;20181;-90
2021/10/12 08:42:32;;;;;;;15.35;5.35;;;14.60;74.80;;;;;;5038179;28;20189;-90
2021/10/12 08:45:07;;;;;;;11.65;5.70;;;14.50;74.70;;;;;;5025167;28;20221;-90
2021/10/12 08:47:34;;;;;;;14.45;6.15;;;14.50;74.80;;;;;;5040949;28;20540;-90
2021/10/12 08:50:03;;;;;;;11.07;5.90;;;14.50;75.00;;;;;;5041304;28;20530;-90
2021/10/12 08:52:28;;;;;;;11.25;5.55;;;14.50;75.00;;;;;;5040046;28;20673;-91
2021/10/12 08:54:55;;;;;;;13.00;6.20;;;14.60;74.90;;;;;;5042021;28;20213;-90
2021/10/12 08:57:35;;;;;;;17.48;5.82;;;14.70;74.90;;;;;;5041523;28;20194;-90
2021/10/12 09:00:05;;;;;;;13.27;6.07;;;14.80;74.50;;;;;;5040125;28;20269;-90
2021/10/12 09:02:31;;;;;;;15.27;6.63;;;14.90;74.50;;;;;;5040403;28;20228;-91
2021/10/12 09:04:57;;;;;;;10.87;6.93;;;15.10;74.20;;;;;;5040788;28;20201;-91
2021/10/12 09:07:25;;;;;;;16.33;6.20;;;15.10;73.80;;;;;;5025474;28;20642;-90
2021/10/12 09:09:53;;;;;;;15.07;6.47;;;15.20;73.50;;;;;;5041324;28;20657;-90
2021/10/12 09:12:38;;;;;;;17.27;6.18;;;15.40;73.30;;;;;;5043762;28;20181;-90
2021/10/12 09:15:05;;;;;;;13.52;5.57;;;15.30;73.10;;;;;;5046212;28;20189;-90
2021/10/12 09:17:35;;;;;;;18.52;6.80;;;15.50;73.20;;;;;;5043888;28;20514;-91
2021/10/12 09:20:12;;;;;;;19.25;7.43;;;15.60;72.60;;;;;;5040555;28;20189;-90
2021/10/12 09:22:39;;;;;;;9.55;5.10;;;15.60;72.40;;;;;;5044060;28;20669;-90
2021/10/12 09:25:08;;;;;;;17.65;6.60;;;15.60;72.60;;;;;;5027755;28;20209;-91
2021/10/12 09:27:54;;;;;;;13.13;5.63;;;15.90;72.60;;;;;;5037778;28;20186;-90
2021/10/12 09:30:27;;;;;;;16.02;5.53;;;15.90;72.20;;;;;;5062668;28;20189;-91
2021/10/12 09:33:01;;;;;;;10.18;4.88;;;16.00;71.90;;;;;;5039122;28;20194;-90
2021/10/12 09:35:32;;;;;;;21.20;6.10;;;16.20;71.80;;;;;;5023288;28;20185;-90
2021/10/12 09:38:16;;;;;;;14.20;4.97;;;16.40;71.50;;;;;;5050842;28;20257;-90
2021/10/12 09:40:44;;;;;;;11.75;5.40;;;16.40;71.10;;;;;;5053627;28;20202;-90
2021/10/12 09:43:10;;;;;;;25.67;5.95;;;16.50;71.10;;;;;;5036423;28;20210;-90
2021/10/12 09:45:41;;;;;;;12.77;4.30;;;16.30;71.20;;;;;;5033842;28;20182;-90
2021/10/12 09:48:32;;;;;;;8.80;4.45;;;16.30;71.70;;;;;;5039767;28;20795;-91
2021/10/12 09:51:09;;;;;;;9.55;3.83;;;16.30;71.60;;;;;;5039726;28;20260;-90
2021/10/12 09:53:36;;;;;;;8.35;4.05;;;16.20;72.10;;;;;;5039836;28;20197;-91
2021/10/12 09:56:02;;;;;;;12.40;3.10;;;16.00;72.30;;;;;;5039882;28;20190;-91
2021/10/12 09:58:32;;;;;;;8.70;3.65;;;15.80;72.70;;;;;;5039040;28;20251;-90
2021/10/12 10:01:00;;;;;;;13.70;3.58;;;15.70;73.20;;;;;;5040071;28;20515;-91
2021/10/12 10:03:29;;;;;;;12.88;3.67;;;15.60;73.40;;;;;;5037868;28;20221;-91
2021/10/12 10:05:58;;;;;;;6.53;3.40;;;15.60;73.50;;;;;;5038737;28;20181;-90
2021/10/12 10:08:27;;;;;;;6.03;3.42;;;15.40;74.10;;;;;;5038636;28;20641;-90
2021/10/12 10:10:53;;;;;;;6.28;3.03;;;15.40;74.40;;;;;;5037536;28;20267;-90
2021/10/12 10:13:19;;;;;;;7.03;3.17;;;15.50;74.60;;;;;;5037731;28;20198;-91
2021/10/12 10:15:46;;;;;;;5.35;3.47;;;15.60;74.20;;;;;;5027445;28;20183;-90
2021/10/12 10:18:16;;;;;;;14.23;2.60;;;15.50;73.70;;;;;;5018281;28;20182;-90
2021/10/12 10:20:42;;;;;;;14.52;3.78;;;15.60;73.40;;;;;;5018900;28;20226;-91
2021/10/12 10:23:07;;;;;;;9.20;3.13;;;15.80;72.70;;;;;;5036994;28;20297;-91
2021/10/12 10:25:41;;;;;;;3.73;2.10;;;15.80;72.30;;;;;;5038046;28;20185;-90
2021/10/12 10:28:19;;;;;;;9.18;2.90;;;15.80;72.20;;;;;;5038315;28;20637;-91
2021/10/12 10:30:47;;;;;;;7.88;3.60;;;15.90;71.40;;;;;;5035311;28;20614;-91
2021/10/12 10:33:27;;;;;;;4.50;2.38;;;15.70;71.40;;;;;;5039798;28;20198;-91
2021/10/12 10:36:15;;;;;;;3.03;2.40;;;15.60;73.20;;;;;;5037331;28;20657;-91
2021/10/12 10:38:47;;;;;;;6.93;2.92;;;15.40;74.40;;;;;;5039008;28;20173;-91
2021/10/12 10:41:15;;;;;;;9.00;2.78;;;15.20;75.80;;;;;;5028540;28;20182;-90
2021/10/12 10:43:56;;;;;;;11.43;2.42;;;15.40;76.40;;;;;;5020763;28;20544;-91
2021/10/12 10:46:31;;;;;;;7.78;2.70;;;15.20;76.40;;;;;;5039125;28;20177;-91
2021/10/12 10:49:24;;;;;;;8.80;3.05;;;15.30;76.80;;;;;;5039134;28;20182;-92
2021/10/12 10:51:59;;;;;;;9.68;3.05;;;15.30;76.70;;;;;;5036812;28;20193;-91
2021/10/12 10:54:37;;;;;;;6.40;3.28;;;15.30;76.50;;;;;;5038491;28;20304;-91
2021/10/12 10:57:11;;;;;;;11.77;2.75;;;15.30;76.30;;;;;;5053784;28;20193;-91
2021/10/12 10:59:36;;;;;;;12.05;3.20;;;15.40;76.10;;;;;;5039178;28;20181;-91
2021/10/12 11:02:22;;;;;;;10.47;4.10;;;15.50;75.80;;;;;;5039210;28;20257;-91
2021/10/12 11:04:49;;;;;;;8.68;3.40;;;15.60;75.10;;;;;;5039099;28;20494;-91
2021/10/12 11:07:21;;;;;;;9.70;4.13;;;15.50;74.90;;;;;;5039924;28;20182;-91
2021/10/12 11:09:47;;;;;;;7.28;3.30;;;15.60;75.30;;;;;;5041575;28;20178;-91
2021/10/12 11:12:21;;;;;;;12.65;4.50;;;15.60;76.70;;;;;;5024383;28;20198;-91
2021/10/12 11:14:47;;;;;;;12.50;4.35;;;15.60;77.50;;;;;;5039111;28;20190;-90
2021/10/12 11:17:14;;;;;;;19.85;4.70;;;15.40;78.00;;;;;;5058521;28;20181;-91
2021/10/12 11:20:00;;;;;;;10.77;4.47;;;15.40;78.50;;;;;;5045477;28;20254;-91
2021/10/12 11:22:28;;;;;;;7.85;3.90;;;15.40;79.00;;;;;;5042134;28;20566;-91
2021/10/12 11:25:10;;;;;;;12.30;4.95;;;15.40;79.30;;;;;;5038044;28;20553;-91
2021/10/12 11:27:46;;;;;;;6.63;4.50;;;15.40;80.60;;;;;;5038677;28;20205;-91
2021/10/12 11:30:14;;;;;;;10.07;4.15;;;15.20;81.60;;;;;;5038581;28;20173;-91
2021/10/12 11:32:40;;;;;;;8.70;4.63;;;15.10;82.60;;;;;;5040179;28;20266;-91
2021/10/12 11:35:11;;;;;;;7.10;4.10;;;15.00;83.60;;;;;;5038377;28;20335;-91
2021/10/12 11:37:53;;;;;;;8.40;4.57;;;14.90;84.30;;;;;;5037796;28;20177;-91
2021/10/12 11:40:22;;;;;;;8.52;5.30;;;14.90;84.80;;;;;;5038717;28;20182;-91
2021/10/12 11:42:48;;;;;;;10.43;5.03;;;15.10;85.10;;;;;;5038615;28;20202;-91
2021/10/12 11:45:14;;;;;;;9.88;5.53;;;15.10;84.80;;;;;;5039675;28;20202;-91
2021/10/12 11:47:40;;;;;;;18.40;5.87;;;15.20;84.30;;;;;;5024309;28;20684;-91
2021/10/12 11:50:10;;;;;;;15.50;5.38;;;15.30;84.00;;;;;;5030947;28;20182;-91
2021/10/12 11:52:37;;;;;;;11.80;6.00;;;15.20;83.50;;;;;;5040589;28;20186;-91
2021/10/12 11:55:08;;;;;;;12.00;6.80;;;15.50;83.70;;;;;;5038155;28;20181;-90
2021/10/12 11:57:34;;;;;;;9.75;5.00;;;15.70;83.30;;;;;;5037575;28;20423;-91
2021/10/12 12:00:00;;;;;;;18.43;7.10;;;15.70;83.00;;;;;;5038860;28;20264;-91
2021/10/12 12:02:30;;;;;;;19.03;8.10;;;15.60;83.20;;;;;;5036740;28;20196;-91
2021/10/12 12:05:00;;;;;;;15.45;7.07;;;15.50;83.90;;;;;;5038925;28;20897;-91
2021/10/12 12:07:28;;;;;;;16.48;7.47;;;15.50;84.50;;;;;;5037261;28;20192;-90
2021/10/12 12:09:54;;;;;;;18.65;7.32;;;15.40;84.70;;;;;;5037998;28;20181;-91
2021/10/12 12:12:21;;;;;;;15.82;7.00;;;15.40;85.10;;;;;;5020420;28;20532;-91
2021/10/12 12:14:52;;;;;;;22.73;9.35;;;15.20;85.30;;;;;;5023149;28;20194;-91
2021/10/12 12:17:32;;;;;;;18.98;10.25;;;15.10;85.80;;;;;;5036523;28;20185;-91
2021/10/12 12:20:12;;;;;;;15.45;8.15;;;15.00;86.30;;;;;;5035311;28;20617;-91
2021/10/12 12:22:42;;;;;;;13.32;8.00;;;15.00;86.80;;;;;;5036812;28;20319;-91
2021/10/12 12:25:18;;;;;;;18.73;9.70;;;15.10;87.00;;;;;;5037703;28;20208;-90
2021/10/12 12:27:53;;;;;;;17.10;8.15;;;15.00;87.10;;;;;;5038199;28;20182;-91
2021/10/12 12:30:30;;;;;;;18.48;9.10;;;14.90;87.10;;;;;;5038942;28;20177;-91
2021/10/12 12:32:57;;;;;;;13.50;8.52;;;14.80;87.60;;;;;;5035423;28;20237;-91
2021/10/12 12:35:25;;;;;;;20.83;9.50;;;14.80;88.00;;;;;;5021550;28;20176;-91
2021/10/12 12:38:00;;;;;;;19.88;9.15;;;14.70;88.20;;;;;;5038031;28;20251;-91
2021/10/12 12:40:34;;;;;;;16.08;9.18;;;14.60;88.30;;;;;;5037814;28;20194;-91
2021/10/12 12:43:19;;;;;;;17.90;9.18;;;14.40;88.50;;;;;;5038303;28;20259;-91
2021/10/12 12:45:45;;;;;;;28.52;12.32;;;14.50;89.10;;;;;;5057570;28;20187;-91
2021/10/12 12:48:22;;;;;;;20.55;10.60;;;14.40;89.40;;;;;;5039026;28;20182;-91